Urb Palmanova, Puerto Rico
Current Conditions -  °F | °C
As of 3:53 PM on Wednesday 28 Jan 2015 (Local Time) from TJNR Reporting Station
Overcast Overcast  
Wind Chill: 83°   Ceiling: 7500
Heat Index: 87°   Visibility: 10mi
Dew Point: 70°   Wind: 10mph
Humidity: 65%   Direction: 160°SSE
Pressure: 29.97"   Gusts: NA
Location:  18.1494°N, 65.8294°W
Report Text: TJNR 281953Z AUTO 16009KT 10SM OVC075 28/21 A2997 RMK AO2 SLP150 T02830211 $
Loading
Personal Weather Stations






























Interactive Weather Map New forecast layout! Learn more

10-Day Weather Forecast

Advertisements
Track Severe Weather on mobile